Time;durP1;ratioP1;P1;durP2;ratioP2;P2;SDS_P1;SDS_P2;PMS_P1;PMS_P2;Temp;Humidity;BMP_temperature;BMP_pressure;BME280_temperature;BME280_humidity;BME280_pressure;Samples;Min_cycle;Max_cycle;Signal;HPM_P1;HPM_P2
2024/04/02 00:01:10;;;;;;;3.03;1.48;;;;;;;10.95;100.00;100062.25;5071725;28;20114;-65
2024/04/02 00:04:11;;;;;;;2.17;1.30;;;;;;;10.90;100.00;100062.31;5089833;28;20468;-65
2024/04/02 00:06:58;;;;;;;3.08;1.52;;;;;;;10.90;100.00;100065.03;5094882;28;20044;-65
2024/04/02 00:09:45;;;;;;;2.90;1.50;;;;;;;10.88;100.00;100061.78;5084359;28;20474;-66
2024/04/02 00:12:32;;;;;;;3.50;1.58;;;;;;;10.85;100.00;100062.38;5073421;27;20148;-66
2024/04/02 00:15:19;;;;;;;2.33;1.40;;;;;;;10.84;100.00;100060.72;5098407;27;20088;-65
2024/04/02 00:18:06;;;;;;;4.15;1.48;;;;;;;10.82;100.00;100054.75;5090972;28;20035;-66
2024/04/02 00:20:58;;;;;;;2.58;1.48;;;;;;;10.79;100.00;100064.31;5066693;28;20048;-66
2024/04/02 00:23:45;;;;;;;3.05;1.70;;;;;;;10.79;100.00;100069.75;5086656;28;20054;-65
2024/04/02 00:26:32;;;;;;;3.80;1.92;;;;;;;10.78;100.00;100068.16;5089139;28;20044;-65
2024/04/02 00:29:20;;;;;;;3.38;1.52;;;;;;;10.77;100.00;100069.22;5064333;28;20079;-65
2024/04/02 00:32:07;;;;;;;3.35;1.80;;;;;;;10.75;100.00;100067.91;5076941;28;20040;-67
2024/04/02 00:34:54;;;;;;;4.68;1.67;;;;;;;10.72;100.00;100080.19;5083009;28;20044;-66
2024/04/02 00:37:42;;;;;;;3.45;1.40;;;;;;;10.71;100.00;100078.56;5077459;28;20131;-65
2024/04/02 00:40:29;;;;;;;3.30;1.40;;;;;;;10.71;100.00;100085.94;5077039;28;20044;-67
2024/04/02 00:43:16;;;;;;;2.80;1.50;;;;;;;10.71;100.00;100085.94;5050243;28;20543;-66
2024/04/02 00:46:03;;;;;;;2.58;1.48;;;;;;;10.69;100.00;100097.13;5084271;28;20118;-66
2024/04/02 00:48:51;;;;;;;3.83;1.65;;;;;;;10.69;100.00;100088.94;5079063;28;20496;-66
2024/04/02 00:51:38;;;;;;;2.78;1.90;;;;;;;10.69;100.00;100097.13;5069296;28;20047;-66
2024/04/02 00:54:25;;;;;;;4.03;1.85;;;;;;;10.68;100.00;100100.13;5054936;28;20040;-66
2024/04/02 00:57:12;;;;;;;3.85;1.85;;;;;;;10.66;100.00;100095.78;5097243;28;20044;-66
2024/04/02 01:00:00;;;;;;;4.22;1.95;;;;;;;10.66;100.00;100095.78;5097549;28;20047;-67
2024/04/02 01:02:48;;;;;;;3.63;1.88;;;;;;;10.64;100.00;100100.69;5082876;28;20051;-66
2024/04/02 01:05:36;;;;;;;2.28;1.30;;;;;;;10.63;100.00;100101.81;5066731;28;20109;-67
2024/04/02 01:08:23;;;;;;;4.25;1.70;;;;;;;10.61;100.00;100104.00;5063677;28;20070;-65
2024/04/02 01:11:10;;;;;;;3.80;1.90;;;;;;;10.61;100.00;100101.28;5064652;28;20095;-66
2024/04/02 01:13:57;;;;;;;3.65;1.92;;;;;;;10.57;100.00;100108.38;5093478;28;20100;-66
2024/04/02 01:16:45;;;;;;;3.20;1.83;;;;;;;10.56;100.00;100120.41;5083361;28;20070;-66
2024/04/02 01:19:32;;;;;;;3.22;1.70;;;;;;;10.55;100.00;100123.38;5052572;28;20119;-65
2024/04/02 01:22:19;;;;;;;3.08;1.50;;;;;;;10.49;100.00;100117.19;5084498;28;20035;-65
2024/04/02 01:25:08;;;;;;;3.90;1.77;;;;;;;10.50;100.00;100118.78;5082292;28;20086;-66
2024/04/02 01:27:55;;;;;;;2.95;1.90;;;;;;;10.48;100.00;100115.53;5083651;28;20047;-66
2024/04/02 01:30:42;;;;;;;3.55;1.80;;;;;;;10.47;100.00;100116.66;5077561;28;20080;-66
2024/04/02 01:33:29;;;;;;;4.57;1.90;;;;;;;10.45;100.00;100113.38;5068267;28;20469;-67
2024/04/02 01:36:17;;;;;;;2.90;1.70;;;;;;;10.42;100.00;100119.41;5069712;28;20052;-66
2024/04/02 01:39:04;;;;;;;4.47;1.67;;;;;;;10.41;100.00;100118.59;5083582;28;20055;-66
2024/04/02 01:41:50;;;;;;;4.38;1.70;;;;;;;10.42;100.00;100109.31;5096286;28;20460;-65
2024/04/02 01:44:37;;;;;;;4.57;2.00;;;;;;;10.41;100.00;100110.44;5094066;28;20054;-70
2024/04/02 01:47:24;;;;;;;2.85;1.63;;;;;;;10.36;100.00;100115.91;5084200;28;20496;-66
2024/04/02 01:50:11;;;;;;;4.78;2.10;;;;;;;10.36;100.00;100115.09;5063793;28;20068;-67
2024/04/02 01:52:58;;;;;;;4.30;1.80;;;;;;;10.37;100.00;100116.75;5079154;28;20082;-66
2024/04/02 01:55:45;;;;;;;3.28;2.10;;;;;;;10.37;100.00;100116.75;5095824;28;20096;-65
2024/04/02 01:58:32;;;;;;;4.53;1.88;;;;;;;10.37;100.00;100124.91;5081862;28;20048;-66
2024/04/02 02:01:20;;;;;;;4.93;2.13;;;;;;;10.36;100.00;100134.97;5097195;28;20559;-65
2024/04/02 02:04:07;;;;;;;4.78;2.13;;;;;;;10.34;100.00;100128.16;5066041;28;20044;-66
2024/04/02 02:06:54;;;;;;;2.83;1.55;;;;;;;10.35;100.00;100127.91;5089099;28;20496;-65
2024/04/02 02:09:41;;;;;;;2.53;1.77;;;;;;;10.34;100.00;100129.00;5097321;28;20044;-66
2024/04/02 02:12:28;;;;;;;4.18;1.90;;;;;;;10.33;100.00;100132.00;5083086;28;20048;-66
2024/04/02 02:15:15;;;;;;;5.15;1.80;;;;;;;10.30;100.00;100133.38;5094156;28;20073;-65
2024/04/02 02:18:04;;;;;;;6.10;1.88;;;;;;;10.29;100.00;100129.03;5076870;28;20059;-66
2024/04/02 02:20:51;;;;;;;4.00;2.08;;;;;;;10.29;100.00;100141.81;5079856;28;20093;-63
2024/04/02 02:23:40;;;;;;;2.80;1.88;;;;;;;10.30;100.00;100132.59;5087337;28;20063;-64
2024/04/02 02:26:28;;;;;;;6.90;2.67;;;;;;;10.28;100.00;100143.75;5089289;28;20048;-64
2024/04/02 02:29:16;;;;;;;3.80;1.92;;;;;;;10.26;100.00;100145.09;5077576;28;20051;-66
2024/04/02 02:32:03;;;;;;;4.65;2.05;;;;;;;10.27;100.00;100139.38;5090866;28;20051;-66
2024/04/02 02:34:50;;;;;;;5.78;2.15;;;;;;;10.27;100.00;100149.44;5096495;28;20059;-64
2024/04/02 02:37:37;;;;;;;5.93;2.03;;;;;;;10.26;100.00;100147.81;5075904;28;20031;-66
2024/04/02 02:40:24;;;;;;;6.75;2.05;;;;;;;10.24;100.00;100157.06;5096874;28;20043;-66
2024/04/02 02:43:11;;;;;;;5.78;2.20;;;;;;;10.22;100.00;100163.88;5069172;28;20565;-64
2024/04/02 02:45:58;;;;;;;4.43;2.20;;;;;;;10.21;100.00;100163.06;5060897;28;20048;-65
2024/04/02 02:48:45;;;;;;;4.93;2.40;;;;;;;10.19;100.00;100159.81;5062304;28;20518;-66
2024/04/02 02:51:32;;;;;;;5.13;2.20;;;;;;;10.18;100.00;100158.22;5048564;28;20054;-67
2024/04/02 02:54:19;;;;;;;3.88;2.10;;;;;;;10.15;100.00;100169.66;5079220;28;20090;-66
2024/04/02 02:57:06;;;;;;;3.85;2.38;;;;;;;10.16;100.00;100165.84;5083013;28;20356;-66
2024/04/02 02:59:54;;;;;;;5.53;2.15;;;;;;;10.15;100.00;100177.84;5096374;28;20433;-66
2024/04/02 03:02:41;;;;;;;4.20;2.03;;;;;;;10.14;100.00;100184.34;5094683;28;20397;-66
2024/04/02 03:05:28;;;;;;;5.07;1.95;;;;;;;10.13;100.00;100171.84;5096252;28;20087;-67
2024/04/02 03:08:15;;;;;;;5.97;2.20;;;;;;;10.11;100.00;100171.31;5114318;27;20096;-66
2024/04/02 03:11:04;;;;;;;6.47;2.20;;;;;;;10.09;100.00;100176.22;5105908;28;20075;-66
2024/04/02 03:13:51;;;;;;;4.57;2.05;;;;;;;10.13;100.00;100182.75;5085441;28;20097;-65
2024/04/02 03:16:38;;;;;;;5.15;2.30;;;;;;;10.08;100.00;100180.03;5099489;28;20437;-67
2024/04/02 03:19:25;;;;;;;4.00;2.22;;;;;;;10.07;100.00;100183.84;5085799;28;20146;-67
2024/04/02 03:22:12;;;;;;;5.50;2.30;;;;;;;10.07;100.00;100183.84;5062171;28;20228;-65
2024/04/02 03:24:59;;;;;;;3.47;2.20;;;;;;;10.04;100.00;100189.84;5084548;28;20054;-65
2024/04/02 03:27:46;;;;;;;3.85;2.08;;;;;;;10.03;100.00;100188.25;5084736;28;20039;-66
2024/04/02 03:30:33;;;;;;;5.80;2.42;;;;;;;10.03;100.00;100190.97;5085912;28;20075;-66
2024/04/02 03:33:20;;;;;;;4.07;2.00;;;;;;;10.01;100.00;100187.69;5098790;28;20062;-66
2024/04/02 03:36:08;;;;;;;4.85;2.13;;;;;;;10.01;100.00;100198.59;5083217;28;20104;-66
2024/04/02 03:38:55;;;;;;;3.65;1.83;;;;;;;9.98;100.00;100193.69;5084569;28;20070;-66
2024/04/02 03:41:43;;;;;;;7.85;2.30;;;;;;;9.96;100.00;100202.16;5082817;28;20138;-65
2024/04/02 03:44:30;;;;;;;5.53;2.30;;;;;;;9.96;100.00;100198.63;5082730;28;20078;-65
2024/04/02 03:47:16;;;;;;;5.53;2.50;;;;;;;9.94;100.00;100198.06;5098672;28;20388;-66
2024/04/02 03:50:04;;;;;;;6.60;2.67;;;;;;;9.95;100.00;100202.41;5069080;28;20247;-66
2024/04/02 03:52:50;;;;;;;5.57;2.28;;;;;;;9.95;100.00;100197.78;5083248;28;20071;-65
2024/04/02 03:55:38;;;;;;;7.38;2.30;;;;;;;9.92;100.00;100200.25;5098803;27;20075;-67
2024/04/02 03:58:25;;;;;;;5.13;2.00;;;;;;;9.90;100.00;100208.69;5098002;28;20545;-67
2024/04/02 04:01:12;;;;;;;6.20;2.53;;;;;;;9.90;100.00;100205.16;5098486;28;20487;-68
2024/04/02 04:03:59;;;;;;;6.15;2.38;;;;;;;9.89;100.00;100203.53;5083709;28;20044;-67
2024/04/02 04:06:47;;;;;;;7.07;2.55;;;;;;;9.89;100.00;100214.44;5084631;28;20100;-66
2024/04/02 04:09:34;;;;;;;3.92;1.95;;;;;;;9.88;100.00;100218.22;5049744;28;20054;-65
2024/04/02 04:12:21;;;;;;;4.43;1.77;;;;;;;9.86;100.00;100236.72;5063943;28;20126;-65
2024/04/02 04:15:08;;;;;;;4.63;1.92;;;;;;;9.86;100.00;100234.00;5095145;28;20067;-65
2024/04/02 04:17:55;;;;;;;6.57;2.20;;;;;;;9.87;100.00;100236.47;5083332;28;20035;-66
2024/04/02 04:20:57;;;;;;;5.80;2.38;;;;;;;9.84;100.00;100234.31;5081680;28;20508;-67
2024/04/02 04:23:44;;;;;;;4.00;1.77;;;;;;;9.85;100.00;100235.13;5096358;28;20140;-65
2024/04/02 04:26:31;;;;;;;4.22;2.13;;;;;;;9.83;100.00;100238.09;5097749;28;20331;-66
2024/04/02 04:29:18;;;;;;;5.07;1.98;;;;;;;9.81;100.00;100241.13;5096491;28;20587;-65
2024/04/02 04:32:05;;;;;;;5.82;2.35;;;;;;;9.77;100.00;100245.47;5098920;28;20048;-68
2024/04/02 04:34:52;;;;;;;4.40;1.85;;;;;;;9.77;100.00;100250.13;5097133;28;20172;-66
2024/04/02 04:37:39;;;;;;;5.70;2.10;;;;;;;9.77;100.00;100250.13;5097628;28;20135;-67
2024/04/02 04:40:26;;;;;;;5.55;2.30;;;;;;;9.76;100.00;100254.72;5084747;28;20407;-67
2024/04/02 04:43:16;;;;;;;5.18;2.00;;;;;;;9.76;100.00;100254.72;5097195;28;20059;-67
2024/04/02 04:46:06;;;;;;;4.70;1.88;;;;;;;9.73;100.00;100255.28;5095770;28;20063;-64
2024/04/02 04:48:53;;;;;;;4.75;2.00;;;;;;;9.74;100.00;100262.38;5051364;28;20427;-66
2024/04/02 04:51:40;;;;;;;6.72;2.72;;;;;;;9.71;100.00;100257.44;5090814;28;20431;-66
2024/04/02 04:54:27;;;;;;;5.57;2.35;;;;;;;9.71;100.00;100264.81;5098578;28;20043;-66
2024/04/02 04:57:14;;;;;;;4.18;1.80;;;;;;;9.74;100.00;100265.09;5086385;28;20492;-66
2024/04/02 05:00:01;;;;;;;6.18;2.40;;;;;;;9.73;100.00;100266.16;5077915;28;20507;-67
2024/04/02 05:02:48;;;;;;;4.72;2.20;;;;;;;9.74;100.00;100265.09;5046808;28;20138;-65
2024/04/02 05:05:35;;;;;;;5.22;2.03;;;;;;;9.77;100.00;100269.16;5068983;28;20044;-66
2024/04/02 05:08:25;;;;;;;3.42;1.83;;;;;;;9.76;100.00;100278.38;5069311;28;20067;-64
2024/04/02 05:11:12;;;;;;;5.53;2.47;;;;;;;9.74;100.00;100280.56;5069066;27;20047;-66
2024/04/02 05:13:59;;;;;;;4.20;2.00;;;;;;;9.71;100.00;100287.38;5090492;27;20054;-67
2024/04/02 05:16:46;;;;;;;8.27;2.30;;;;;;;9.69;100.00;100292.31;5064499;28;20066;-66
2024/04/02 05:19:33;;;;;;;4.53;1.85;;;;;;;9.67;100.00;100297.19;5077194;28;20051;-65
2024/04/02 05:22:21;;;;;;;5.63;2.28;;;;;;;9.64;100.00;100289.56;5077816;28;20051;-68
2024/04/02 05:25:08;;;;;;;5.15;2.20;;;;;;;9.67;100.00;100289.03;5077636;28;20093;-65
2024/04/02 05:27:55;;;;;;;6.47;2.50;;;;;;;9.65;100.00;100296.66;5077135;28;20067;-65
2024/04/02 05:30:42;;;;;;;5.50;2.28;;;;;;;9.66;100.00;100300.19;5079942;28;20142;-65
2024/04/02 05:33:29;;;;;;;7.22;2.28;;;;;;;9.66;100.00;100309.16;5093805;28;20040;-66
2024/04/02 05:36:16;;;;;;;4.78;2.42;;;;;;;9.66;100.00;100308.34;5087369;28;20576;-66
2024/04/02 05:39:03;;;;;;;6.95;2.30;;;;;;;9.67;100.00;100308.09;5082899;28;20044;-66
2024/04/02 05:41:50;;;;;;;6.78;2.33;;;;;;;9.66;100.00;100303.72;5093853;28;20422;-67
2024/04/02 05:44:37;;;;;;;6.97;2.20;;;;;;;9.69;100.00;100310.50;5066097;28;20125;-66
2024/04/02 05:47:24;;;;;;;6.80;2.55;;;;;;;9.69;100.00;100314.06;5070426;27;20066;-65
2024/04/02 05:50:11;;;;;;;7.00;2.65;;;;;;;9.70;100.00;100320.31;5076726;28;20484;-64
2024/04/02 05:52:58;;;;;;;7.78;2.10;;;;;;;9.69;100.00;100330.38;5077087;28;20488;-68
2024/04/02 05:55:45;;;;;;;10.35;2.58;;;;;;;9.70;100.00;100329.28;5055501;28;20509;-65
2024/04/02 05:58:32;;;;;;;8.63;2.38;;;;;;;9.70;100.00;100328.47;5098837;28;20139;-66
2024/04/02 06:01:21;;;;;;;4.15;1.90;;;;;;;9.71;100.00;100333.63;5092132;28;20052;-66
2024/04/02 06:04:08;;;;;;;6.93;2.75;;;;;;;9.71;100.00;100339.06;5096290;28;20047;-66
2024/04/02 06:06:55;;;;;;;5.68;2.20;;;;;;;9.77;100.00;100342.63;5096589;28;20407;-65
2024/04/02 06:09:42;;;;;;;4.55;2.28;;;;;;;9.77;100.00;100343.41;5081059;28;20059;-66
2024/04/02 06:12:29;;;;;;;6.18;2.13;;;;;;;9.77;100.00;100346.16;5098063;28;20091;-68
2024/04/02 06:15:17;;;;;;;8.77;2.45;;;;;;;9.79;100.00;100345.88;5068006;28;20044;-67
2024/04/02 06:18:05;;;;;;;8.45;3.00;;;;;;;9.80;100.00;100348.31;5084168;28;20237;-66
2024/04/02 06:20:59;;;;;;;9.20;2.55;;;;;;;9.80;100.00;100347.50;5102176;28;20100;-66
2024/04/02 06:23:47;;;;;;;10.52;2.85;;;;;;;9.75;100.00;100350.22;5081781;28;20055;-66
2024/04/02 06:26:34;;;;;;;10.07;2.83;;;;;;;9.77;100.00;100348.06;5084048;28;20051;-65
2024/04/02 06:29:21;;;;;;;8.07;2.80;;;;;;;9.78;100.00;100360.56;5071862;28;20098;-66
2024/04/02 06:32:09;;;;;;;8.55;2.47;;;;;;;9.82;100.00;100354.28;5069477;28;20036;-65
2024/04/02 06:34:56;;;;;;;7.63;2.67;;;;;;;9.83;100.00;100360.53;5083578;28;20036;-65
2024/04/02 06:37:43;;;;;;;11.80;2.95;;;;;;;9.87;100.00;100363.53;5085283;28;20496;-66
2024/04/02 06:40:30;;;;;;;6.05;2.67;;;;;;;9.92;100.00;100364.34;5106435;28;20067;-66
2024/04/02 06:43:17;;;;;;;10.93;2.70;;;;;;;9.98;100.00;100362.41;5093537;28;20051;-64
2024/04/02 06:46:07;;;;;;;8.60;3.03;;;;;;;9.99;100.00;100364.88;5096231;28;20052;-64
2024/04/02 06:48:57;;;;;;;7.35;2.45;;;;;;;10.27;100.00;100356.34;4744030;27;9999834;-69
2024/04/02 06:51:44;;;;;;;10.02;3.28;;;;;;;10.10;100.00;100362.97;5073468;28;20056;-66
2024/04/02 06:54:31;;;;;;;10.00;3.10;;;;;;;10.01;100.00;100361.88;5082664;28;20052;-67
2024/04/02 06:57:18;;;;;;;11.57;3.17;;;;;;;9.96;100.00;100368.16;5077020;28;20060;-68
2024/04/02 07:00:06;;;;;;;7.90;2.70;;;;;;;9.91;100.00;100375.50;5070774;28;20425;-67
2024/04/02 07:02:53;;;;;;;10.13;3.45;;;;;;;9.92;100.00;100374.41;5082007;28;20440;-67
2024/04/02 07:05:40;;;;;;;12.95;3.10;;;;;;;10.02;100.00;100372.47;5075149;28;20184;-67
2024/04/02 07:08:29;;;;;;;11.02;2.90;;;;;;;10.04;100.00;100374.94;5054531;28;20100;-67
2024/04/02 07:11:16;;;;;;;12.05;3.20;;;;;;;10.03;100.00;100378.75;5095035;28;20104;-67
2024/04/02 07:14:03;;;;;;;9.75;3.10;;;;;;;10.03;100.00;100379.56;5067490;28;20116;-67
2024/04/02 07:16:50;;;;;;;11.30;3.95;;;;;;;10.08;100.00;100386.91;5093500;27;20070;-69
2024/04/02 07:19:37;;;;;;;13.23;3.40;;;;;;;10.10;100.00;100373.84;5084528;28;20045;-70
2024/04/02 07:22:24;;;;;;;9.07;2.80;;;;;;;10.15;100.00;100384.72;5099327;28;20456;-68
2024/04/02 07:25:11;;;;;;;11.88;3.30;;;;;;;10.13;100.00;100388.81;5069308;28;20078;-67
2024/04/02 07:27:58;;;;;;;15.00;3.55;;;;;;;10.14;100.00;100393.97;5095378;28;20035;-68
2024/04/02 07:30:45;;;;;;;14.82;4.03;;;;;;;9.99;100.00;100377.69;5075798;28;20083;-65
2024/04/02 07:33:32;;;;;;;15.95;3.92;;;;;;;9.90;100.00;100382.84;5083833;28;20050;-68
2024/04/02 07:36:19;;;;;;;15.93;4.13;;;;;;;9.89;100.00;100391.31;5096370;28;20042;-66
2024/04/02 07:39:06;;;;;;;15.48;3.80;;;;;;;9.86;100.00;100384.50;5096172;28;20051;-66
2024/04/02 07:41:53;;;;;;;15.02;3.50;;;;;;;10.03;100.00;100390.47;5086225;28;20484;-69
2024/04/02 07:44:40;;;;;;;15.27;3.70;;;;;;;10.19;100.00;100393.16;5099066;28;20048;-70
2024/04/02 07:47:27;;;;;;;12.50;3.60;;;;;;;10.12;100.00;100393.41;5085572;28;20047;-70
2024/04/02 07:50:14;;;;;;;14.80;3.67;;;;;;;10.11;100.00;100393.72;5070114;28;20078;-70
2024/04/02 07:53:02;;;;;;;11.00;3.08;;;;;;;10.17;100.00;100388.00;5098268;28;20093;-73
2024/04/02 07:55:49;;;;;;;12.40;3.65;;;;;;;10.13;100.00;100391.53;5095434;27;20067;-70
2024/04/02 07:58:37;;;;;;;15.25;3.85;;;;;;;10.19;100.00;100399.41;5053357;28;20356;-70
2024/04/02 08:01:24;;;;;;;16.00;4.32;;;;;;;10.49;100.00;100392.28;5091163;28;20178;-70
2024/04/02 08:04:11;;;;;;;13.15;3.42;;;;;;;10.35;100.00;100397.50;5058633;28;20500;-71
2024/04/02 08:06:58;;;;;;;12.77;3.85;;;;;;;10.37;100.00;100406.22;5061624;28;20344;-70
2024/04/02 08:09:45;;;;;;;16.30;4.00;;;;;;;10.35;100.00;100404.84;5085550;28;20043;-70
2024/04/02 08:12:32;;;;;;;13.13;3.53;;;;;;;10.36;100.00;100414.63;5077870;28;20135;-70
2024/04/02 08:15:19;;;;;;;15.23;4.47;;;;;;;10.30;100.00;100415.75;5064034;28;20032;-72
2024/04/02 08:18:06;;;;;;;14.35;3.70;;;;;;;10.39;100.00;100408.63;5064841;28;20087;-69
2024/04/02 08:20:53;;;;;;;12.18;3.60;;;;;;;10.35;100.00;100421.19;5062723;28;20544;-69
2024/04/02 08:23:40;;;;;;;14.00;3.88;;;;;;;10.28;100.00;100421.47;5077708;28;20359;-70
2024/04/02 08:26:28;;;;;;;15.23;3.78;;;;;;;10.28;100.00;100421.47;5070623;28;20126;-70
2024/04/02 08:29:15;;;;;;;16.58;4.03;;;;;;;10.43;100.00;100420.63;5095038;28;20153;-70
2024/04/02 08:32:02;;;;;;;13.77;3.75;;;;;;;10.42;100.00;100424.44;5087813;28;20044;-69
2024/04/02 08:34:49;;;;;;;12.55;4.60;;;;;;;10.46;100.00;100430.94;5061012;28;20047;-71
2024/04/02 08:37:36;;;;;;;15.98;4.05;;;;;;;10.53;100.00;100436.09;5096639;28;20051;-71
2024/04/02 08:40:26;;;;;;;14.05;4.10;;;;;;;10.57;100.00;100440.72;5069990;28;20044;-68
2024/04/02 08:43:13;;;;;;;15.30;4.43;;;;;;;10.61;100.00;100441.81;5099985;28;20044;-71
2024/04/02 08:46:00;;;;;;;16.00;3.58;;;;;;;10.60;100.00;100442.88;5037327;28;20496;-69
2024/04/02 08:48:48;;;;;;;12.82;4.00;;;;;;;10.61;100.00;100444.53;5051283;28;20040;-70
2024/04/02 08:51:35;;;;;;;13.30;3.40;;;;;;;10.59;100.00;100462.25;5086132;28;20506;-70
2024/04/02 08:54:22;;;;;;;16.10;4.03;;;;;;;10.62;100.00;100451.59;5098627;28;20047;-69
2024/04/02 08:57:09;;;;;;;14.77;4.00;;;;;;;10.59;100.00;100459.53;5091834;28;20503;-70
2024/04/02 08:59:56;;;;;;;12.95;3.78;;;;;;;10.56;100.00;100465.50;5078881;28;20444;-71
2024/04/02 09:02:47;;;;;;;16.02;5.82;;;;;;;10.76;100.00;100456.47;5074085;28;20450;-70
2024/04/02 09:05:34;;;;;;;12.73;3.83;;;;;;;10.88;100.00;100454.25;5077593;28;20051;-70
2024/04/02 09:08:21;;;;;;;15.05;4.15;;;;;;;10.95;100.00;100449.31;5091527;28;20043;-70
2024/04/02 09:11:09;;;;;;;16.25;4.28;;;;;;;10.93;100.00;100450.69;5064367;28;20055;-70
2024/04/02 09:14:00;;;;;;;16.95;4.28;;;;;;;10.96;100.00;100459.09;5055568;28;20047;-70
2024/04/02 09:16:48;;;;;;;16.30;4.57;;;;;;;11.14;100.00;100462.31;5055653;28;20423;-70
2024/04/02 09:19:35;;;;;;;12.77;4.03;;;;;;;11.08;100.00;100465.03;5053811;28;20044;-70
2024/04/02 09:22:23;;;;;;;13.80;3.83;;;;;;;11.00;100.00;100471.09;5044084;28;20166;-70
2024/04/02 09:25:10;;;;;;;11.65;3.60;;;;;;;11.04;100.00;100461.28;5036761;28;20091;-69
2024/04/02 09:27:57;;;;;;;14.95;4.40;;;;;;;11.14;100.00;100459.59;5049819;28;20036;-71
2024/04/02 09:30:44;;;;;;;12.07;3.40;;;;;;;11.08;100.00;100465.03;5083565;28;20070;-70
2024/04/02 09:33:33;;;;;;;15.10;4.22;;;;;;;11.23;100.00;100464.19;5086574;27;20039;-70
2024/04/02 09:36:58;;;;;;;14.38;3.42;;;;;;;11.17;100.00;100456.28;5084279;28;20085;-70
2024/04/02 09:39:47;;;;;;;13.88;3.83;;;;;;;11.20;100.00;100472.09;5064348;28;20059;-71
2024/04/02 09:42:34;;;;;;;12.30;3.20;;;;;;;11.05;100.00;100470.25;5077467;28;20399;-72
2024/04/02 09:45:23;;;;;;;9.55;3.03;;;;;;;10.95;100.00;100470.31;5050661;28;20082;-70
2024/04/02 09:48:10;;;;;;;12.15;3.40;;;;;;;10.85;100.00;100465.72;5079979;28;20039;-72
2024/04/02 09:50:58;;;;;;;14.55;3.67;;;;;;;10.80;100.00;100468.44;5068121;28;20499;-71
2024/04/02 09:53:45;;;;;;;11.20;3.30;;;;;;;10.77;100.00;100471.72;5056539;28;20082;-72
2024/04/02 09:56:34;;;;;;;15.07;3.40;;;;;;;10.77;100.00;100477.97;5069999;28;20044;-72
2024/04/02 09:59:21;;;;;;;12.80;2.72;;;;;;;10.76;100.00;100476.38;5070622;28;20047;-72
2024/04/02 10:02:16;;;;;;;9.27;2.58;;;;;;;10.79;100.00;100494.06;5082012;28;20059;-71
2024/04/02 10:05:04;;;;;;;11.43;3.25;;;;;;;10.80;100.00;100499.25;5084237;28;20079;-70
2024/04/02 10:07:52;;;;;;;8.27;2.83;;;;;;;10.78;100.00;100508.81;5070877;28;20051;-71
2024/04/02 10:10:42;;;;;;;17.00;4.53;;;;;;;10.88;100.00;100515.03;5056478;28;20507;-74
2024/04/02 10:13:39;;;;;;;9.88;3.22;;;;;;;10.85;100.00;100514.78;5051295;28;20048;-71
2024/04/02 10:16:31;;;;;;;8.15;3.22;;;;;;;10.76;100.00;100513.72;4373321;28;10000360;-71
2024/04/02 10:19:20;;;;;;;11.75;3.55;;;;;;;10.83;100.00;100512.31;5084749;28;20593;-72
2024/04/02 10:22:07;;;;;;;10.52;3.40;;;;;;;10.83;100.00;100516.97;5069966;28;20134;-73
2024/04/02 10:25:06;;;;;;;12.75;3.28;;;;;;;10.79;100.00;100519.41;5069330;28;20086;-72
2024/04/02 10:27:57;;;;;;;13.65;3.67;;;;;;;10.88;100.00;100508.75;5096904;28;20051;-72
2024/04/02 10:30:46;;;;;;;14.15;4.13;;;;;;;10.84;100.00;100507.69;5086816;28;20504;-72
2024/04/02 10:33:33;;;;;;;13.65;3.83;;;;;;;10.85;100.00;100503.88;5098869;28;20176;-74
2024/04/02 10:36:23;;;;;;;12.88;3.50;;;;;;;10.84;100.00;100507.69;5083523;28;20104;-74
2024/04/02 10:39:11;;;;;;;10.07;3.17;;;;;;;10.84;100.00;100497.59;5073275;28;20039;-72
2024/04/02 10:42:02;;;;;;;8.80;3.28;;;;;;;10.85;100.00;100503.88;5087726;28;20054;-73
2024/04/02 10:44:50;;;;;;;10.60;3.28;;;;;;;10.90;100.00;100495.69;5053648;28;20048;-75
2024/04/02 10:47:43;;;;;;;10.43;3.15;;;;;;;10.91;100.00;100502.75;5040525;28;20055;-73
2024/04/02 10:50:30;;;;;;;15.63;5.43;;;;;;;11.06;100.00;100499.13;5060999;28;20136;-71
2024/04/02 10:53:17;;;;;;;10.50;3.42;;;;;;;10.93;100.00;100510.66;5100034;28;20047;-73
2024/04/02 10:56:05;;;;;;;10.15;3.10;;;;;;;10.90;100.00;100494.88;5085758;28;20085;-76
2024/04/02 10:58:53;;;;;;;8.85;3.00;;;;;;;10.73;100.00;100500.66;5084386;28;20087;-71
2024/04/02 11:01:40;;;;;;;10.68;3.40;;;;;;;10.60;100.00;100494.66;5088852;28;20091;-74
2024/04/02 11:04:28;;;;;;;11.38;2.92;;;;;;;10.56;100.00;100501.75;5065725;28;20043;-72
2024/04/02 11:07:15;;;;;;;8.38;2.80;;;;;;;10.54;100.00;100503.13;5056873;28;20071;-78
2024/04/02 11:10:03;;;;;;;11.13;3.30;;;;;;;10.77;100.00;100502.50;5125181;28;20039;-72
2024/04/02 11:12:50;;;;;;;11.95;3.60;;;;;;;10.83;100.00;100500.59;5090406;28;20062;-72
2024/04/02 11:15:37;;;;;;;10.23;3.15;;;;;;;10.93;100.00;100510.66;5068127;28;20047;-72
2024/04/02 11:18:25;;;;;;;10.30;3.50;;;;;;;10.93;100.00;100514.19;5088041;28;20055;-72
2024/04/02 11:21:21;;;;;;;8.82;3.00;;;;;;;10.82;100.00;100512.59;5072077;28;20118;-74
2024/04/02 11:27:22;;;;;;;9.27;3.00;;;;;;;10.73;100.00;100522.44;5094428;28;20083;-72
2024/04/02 11:30:12;;;;;;;6.72;2.17;;;;;;;10.74;100.00;100521.34;5085626;28;20055;-71
2024/04/02 11:32:59;;;;;;;6.03;2.50;;;;;;;10.75;100.00;100521.06;5069226;28;20075;-72
2024/04/02 11:35:46;;;;;;;6.65;2.08;;;;;;;10.60;100.00;100530.06;5062241;28;20438;-72
2024/04/02 11:38:36;;;;;;;8.75;2.70;;;;;;;10.65;100.00;100526.53;5081024;28;20487;-71
2024/04/02 11:41:24;;;;;;;6.55;2.33;;;;;;;10.64;100.00;100530.34;5048207;28;20036;-72
2024/04/02 11:44:12;;;;;;;5.72;2.08;;;;;;;10.62;100.00;100530.63;5077833;28;20051;-72
2024/04/02 11:46:59;;;;;;;10.30;3.17;;;;;;;10.77;100.00;100534.41;5077023;28;20040;-70
2024/04/02 11:49:46;;;;;;;9.13;2.90;;;;;;;10.81;100.00;100535.50;5073261;28;20418;-70
2024/04/02 11:52:36;;;;;;;6.30;2.30;;;;;;;10.80;100.00;100531.94;5093321;28;20116;-70
2024/04/02 11:55:23;;;;;;;6.88;2.15;;;;;;;10.83;100.00;100536.03;5066713;28;20051;-70
2024/04/02 12:01:16;;;;;;;9.98;2.90;;;;;;;11.03;100.00;100544.13;5074565;28;20408;-71
2024/04/02 12:04:03;;;;;;;6.70;2.70;;;;;;;11.13;100.00;100531.56;5077446;28;20498;-71
2024/04/02 12:06:56;;;;;;;9.15;3.00;;;;;;;11.25;100.00;100534.78;5065813;28;20043;-71
2024/04/02 12:09:46;;;;;;;12.25;3.00;;;;;;;11.11;100.00;100544.66;5071213;28;20043;-71
2024/04/02 12:12:33;;;;;;;6.78;2.45;;;;;;;11.08;100.00;100537.84;5070965;28;20083;-72
2024/04/02 12:15:21;;;;;;;7.72;2.75;;;;;;;11.01;100.00;100537.34;4741114;28;9999998;-70
2024/04/02 12:18:08;;;;;;;7.93;2.85;;;;;;;10.99;100.00;100537.63;5067501;28;20051;-72
2024/04/02 12:20:57;;;;;;;7.50;2.53;;;;;;;10.95;100.00;100542.00;5075980;28;20105;-72
2024/04/02 12:23:44;;;;;;;8.05;2.63;;;;;;;10.95;100.00;100530.28;5046742;28;20079;-73
2024/04/02 12:26:31;;;;;;;6.45;2.70;;;;;;;11.17;100.00;100529.91;5065225;28;20583;-72
2024/04/02 12:29:18;;;;;;;6.80;2.90;;;;;;;11.20;100.00;100537.53;5066341;27;20584;-72
2024/04/02 12:32:07;;;;;;;8.15;2.42;;;;;;;11.09;100.00;100540.31;5092960;28;20526;-72
2024/04/02 12:34:54;;;;;;;10.60;3.00;;;;;;;11.21;100.00;100528.28;5080115;28;20131;-72
2024/04/02 12:37:41;;;;;;;9.95;2.80;;;;;;;11.30;100.00;100532.03;5051786;28;20048;-72
2024/04/02 12:40:29;;;;;;;8.63;2.80;;;;;;;11.31;100.00;100539.13;5095774;28;20129;-71
2024/04/02 12:43:16;;;;;;;9.25;3.22;;;;;;;11.37;100.00;100531.72;5066778;28;20054;-72
2024/04/02 12:46:03;;;;;;;10.30;3.17;;;;;;;11.35;100.00;100518.38;5066129;28;20123;-71
2024/04/02 12:48:51;;;;;;;9.38;3.03;;;;;;;11.33;100.00;100520.59;5094790;28;20046;-72
2024/04/02 12:51:38;;;;;;;8.63;2.83;;;;;;;11.43;100.00;100522.44;5080840;28;20051;-73
2024/04/02 12:54:25;;;;;;;9.30;3.25;;;;;;;11.48;100.00;100525.94;5063589;28;20062;-71
2024/04/02 12:57:12;;;;;;;9.75;3.25;;;;;;;11.38;100.00;100526.00;5065499;28;20044;-72